Terminal Aerodrome Forecast
Issued by NWS

Home | Current Version | Previous Version | Graphics & Text | Print | Product List | Glossary On
Versions: 1 2 3 4 5 6 7 8 9 10 11 12 13 14 15 16 17 18 19 20 21 22 23 24 25 26 27 28 29 30
000
FTUS43 KLOT 102109 AAB
TAFORD
TAF AMD
KORD 102109Z 1021/1124 31010KT P6SM BKN025 BKN250
     FM110700 25005KT P6SM SCT050 BKN100
     FM111300 21007KT P6SM -SHSN SCT025 OVC040
      TEMPO 1116/1118 2SM -SHSN SCT020 BKN025
     FM112100 20006KT 4SM -SHSN SCT020 OVC040 PROB30 1121/1124 2SM
      -SN BKN020=

USA.gov is the U.S. government's official web portal to all federal, state and local government web resources and services.